Time;durP1;ratioP1;P1;durP2;ratioP2;P2;SDS_P1;SDS_P2;PMS_P1;PMS_P2;Temp;Humidity;BMP_temperature;BMP_pressure;BME280_temperature;BME280_humidity;BME280_pressure;Samples;Min_cycle;Max_cycle;Signal;HPM_P1;HPM_P2
2021/01/18 00:01:30;;;;;;;57.38;26.25;;;;;;;-12.91;50.89;100748.08;1721346;83;21198;-56
2021/01/18 00:04:35;;;;;;;53.35;26.02;;;;;;;-12.90;51.01;100748.92;1721330;83;21223;-54
2021/01/18 00:07:58;;;;;;;52.38;25.12;;;;;;;-12.96;50.86;100738.05;1719849;82;21278;-55
2021/01/18 00:11:03;;;;;;;53.40;25.30;;;;;;;-13.01;51.05;100737.27;1721424;83;21329;-55
2021/01/18 00:14:10;;;;;;;54.58;24.92;;;;;;;-12.93;51.18;100743.27;1721393;83;21404;-55
2021/01/18 00:17:16;;;;;;;54.48;24.85;;;;;;;-12.84;51.06;100736.55;1721582;83;21380;-55
2021/01/18 00:20:27;;;;;;;59.33;27.15;;;;;;;-12.80;50.82;100732.10;1721221;83;22161;-55
2021/01/18 00:23:32;;;;;;;49.00;24.65;;;;;;;-12.80;50.83;100731.67;1721402;83;21311;-55
2021/01/18 00:26:37;;;;;;;56.25;25.08;;;;;;;-12.81;50.71;100724.63;1721454;83;21361;-54
2021/01/18 00:29:42;;;;;;;59.08;27.70;;;;;;;-12.84;50.82;100735.69;1721338;83;21895;-55
2021/01/18 00:32:48;;;;;;;68.55;30.80;;;;;;;-12.90;50.74;100743.66;1721477;83;21333;-55
2021/01/18 00:35:54;;;;;;;75.10;32.53;;;;;;;-12.95;51.08;100742.85;1721157;83;21231;-55
2021/01/18 00:39:00;;;;;;;87.80;35.65;;;;;;;-12.81;51.26;100739.59;1721338;82;21361;-56
2021/01/18 00:42:05;;;;;;;75.45;31.95;;;;;;;-12.66;51.25;100741.98;1720937;83;21357;-54
2021/01/18 00:45:12;;;;;;;65.22;28.67;;;;;;;-12.58;51.15;100748.00;1716452;83;21228;-53
2021/01/18 00:48:19;;;;;;;62.78;28.30;;;;;;;-12.52;50.98;100745.27;1697257;83;21381;-54
2021/01/18 00:51:23;;;;;;;58.10;26.40;;;;;;;-12.46;50.99;100749.58;1716613;83;21215;-56
2021/01/18 00:54:28;;;;;;;66.10;27.80;;;;;;;-12.39;50.93;100743.30;1716630;83;21227;-53
2021/01/18 00:57:41;;;;;;;64.45;26.57;;;;;;;-12.36;50.74;100732.25;1716599;82;21207;-55
2021/01/18 01:00:47;;;;;;;77.10;31.55;;;;;;;-12.43;50.60;100733.71;1716911;83;21195;-55
2021/01/18 01:03:54;;;;;;;66.95;29.05;;;;;;;-12.42;50.59;100726.21;1716401;83;21816;-55
2021/01/18 01:07:00;;;;;;;55.28;24.37;;;;;;;-12.60;50.19;100733.53;1716359;83;21815;-54
2021/01/18 01:10:05;;;;;;;53.38;24.95;;;;;;;-12.77;50.40;100736.00;1716578;83;21330;-54
2021/01/18 01:13:15;;;;;;;60.90;26.52;;;;;;;-12.94;50.41;100734.08;1716556;83;21215;-55
2021/01/18 01:16:20;;;;;;;48.28;22.87;;;;;;;-13.09;50.65;100736.95;1716438;82;21243;-54
2021/01/18 01:19:26;;;;;;;51.05;24.25;;;;;;;-13.05;50.92;100749.20;1716405;83;21258;-55
2021/01/18 01:22:32;;;;;;;44.53;23.00;;;;;;;-12.95;51.19;100752.06;1716425;82;21212;-54
2021/01/18 01:25:37;;;;;;;42.50;22.50;;;;;;;-12.83;51.33;100751.91;1716492;82;21283;-54
2021/01/18 01:28:42;;;;;;;52.03;23.05;;;;;;;-12.77;50.97;100743.91;1716533;82;21243;-54
2021/01/18 01:31:47;;;;;;;46.92;24.32;;;;;;;-12.83;50.98;100741.38;1716708;83;21357;-55
2021/01/18 01:34:52;;;;;;;46.37;23.73;;;;;;;-12.79;51.00;100730.77;1716548;83;21238;-54
2021/01/18 01:37:58;;;;;;;57.55;23.83;;;;;;;-12.72;51.09;100722.31;1716633;83;21230;-55
2021/01/18 01:41:03;;;;;;;45.88;22.75;;;;;;;-12.72;50.99;100721.00;1716521;82;21200;-55
2021/01/18 01:44:09;;;;;;;46.15;21.77;;;;;;;-12.73;50.80;100719.27;1721301;82;21236;-55
2021/01/18 01:47:15;;;;;;;58.48;26.68;;;;;;;-12.95;50.63;100713.88;1731665;83;21363;-54
2021/01/18 01:50:28;;;;;;;39.25;18.15;;;;;;;-13.15;50.85;100718.61;1731709;83;21458;-54
2021/01/18 01:53:37;;;;;;;44.18;21.75;;;;;;;-13.21;51.19;100713.44;1731678;83;21358;-55
2021/01/18 01:56:42;;;;;;;50.38;23.70;;;;;;;-13.29;51.22;100719.25;1720084;82;21227;-54
2021/01/18 01:59:48;;;;;;;47.85;24.10;;;;;;;-13.44;51.32;100703.20;1731692;83;21430;-54
2021/01/18 02:02:54;;;;;;;43.73;20.80;;;;;;;-13.45;51.79;100694.02;1731627;83;21284;-55
2021/01/18 02:06:00;;;;;;;54.60;23.60;;;;;;;-13.32;52.03;100696.92;1731710;83;21885;-55
2021/01/18 02:09:06;;;;;;;40.98;20.57;;;;;;;-13.29;51.85;100692.92;1731655;83;21295;-55
2021/01/18 02:12:11;;;;;;;46.45;22.90;;;;;;;-13.39;51.61;100696.56;1731723;83;21197;-54
2021/01/18 02:15:38;;;;;;;45.12;22.52;;;;;;;-13.54;51.98;100691.52;1731676;83;21899;-54
2021/01/18 02:19:05;;;;;;;40.25;19.87;;;;;;;-13.65;52.16;100695.58;1731641;83;21393;-54
2021/01/18 02:22:43;;;;;;;45.92;21.52;;;;;;;-13.59;52.43;100701.22;1731672;83;21351;-55
2021/01/18 02:26:10;;;;;;;39.03;20.25;;;;;;;-13.60;52.36;100702.13;1731808;83;21346;-54
2021/01/18 02:29:32;;;;;;;44.23;19.00;;;;;;;-13.61;52.47;100700.36;1731672;83;21907;-54
2021/01/18 02:33:17;;;;;;;41.15;19.75;;;;;;;-13.64;52.79;100701.72;1731708;83;21216;-55
2021/01/18 02:36:48;;;;;;;35.95;19.02;;;;;;;-13.59;52.85;100693.33;1701584;84;21250;-54
2021/01/18 02:40:07;;;;;;;37.60;18.75;;;;;;;-13.38;53.05;100697.00;1731562;83;21446;-54
2021/01/18 02:43:15;;;;;;;42.03;18.87;;;;;;;-13.18;52.96;100706.80;1731726;83;21370;-54
2021/01/18 02:46:21;;;;;;;40.83;19.20;;;;;;;-12.97;52.76;100706.47;1725114;81;21209;-55
2021/01/18 02:49:28;;;;;;;34.75;17.45;;;;;;;-12.86;52.26;100704.07;1723620;82;21273;-53
2021/01/18 02:52:34;;;;;;;36.28;18.73;;;;;;;-12.86;51.75;100706.70;1723594;83;21187;-55
2021/01/18 02:55:40;;;;;;;38.28;19.55;;;;;;;-12.88;51.64;100704.56;1723566;83;21211;-54
2021/01/18 02:58:46;;;;;;;43.50;19.77;;;;;;;-12.83;51.43;100705.80;1723607;83;21287;-54
2021/01/18 03:02:47;;;;;;;39.70;19.00;;;;;;;-12.79;51.25;100705.73;1723702;83;21756;-55
2021/01/18 03:06:16;;;;;;;38.73;21.20;;;;;;;-12.69;51.18;100705.14;1723607;83;21260;-54
2021/01/18 03:09:28;;;;;;;43.02;20.35;;;;;;;-12.59;50.92;100718.60;1723519;81;21279;-54
2021/01/18 03:12:35;;;;;;;48.38;20.15;;;;;;;-12.56;50.63;100706.69;1723708;83;21729;-54
2021/01/18 03:15:49;;;;;;;42.48;19.87;;;;;;;-12.57;50.29;100703.61;1723701;83;21258;-56
2021/01/18 03:18:56;;;;;;;41.05;20.37;;;;;;;-12.60;50.09;100703.66;1723701;83;21250;-55
2021/01/18 03:22:02;;;;;;;43.85;20.85;;;;;;;-12.62;49.86;100709.43;1723591;83;21215;-55
2021/01/18 03:25:11;;;;;;;40.80;18.98;;;;;;;-12.68;49.77;100701.59;1723703;83;21238;-54
2021/01/18 03:28:17;;;;;;;41.85;21.20;;;;;;;-12.68;49.80;100714.34;1723638;83;21754;-55
2021/01/18 03:31:24;;;;;;;43.25;22.10;;;;;;;-12.72;49.46;100717.93;1723494;83;21246;-54
2021/01/18 03:34:30;;;;;;;46.48;22.55;;;;;;;-12.83;49.36;100721.61;1723104;82;21655;-54
2021/01/18 03:37:36;;;;;;;47.33;22.48;;;;;;;-12.89;49.49;100717.77;1723198;83;21226;-54
2021/01/18 03:40:41;;;;;;;47.40;21.05;;;;;;;-12.89;49.59;100717.30;1723175;83;21195;-55
2021/01/18 03:43:46;;;;;;;49.35;23.83;;;;;;;-12.88;49.45;100719.48;1723168;83;21747;-54
2021/01/18 03:46:53;;;;;;;51.15;23.18;;;;;;;-12.86;49.32;100726.94;1717890;82;21266;-54
2021/01/18 03:49:58;;;;;;;47.80;23.95;;;;;;;-12.88;49.21;100721.69;1714013;82;21213;-55
2021/01/18 03:53:04;;;;;;;51.77;25.80;;;;;;;-12.91;49.02;100728.77;1714060;83;21355;-54
2021/01/18 03:56:03;;;;;;;45.33;22.13;;;;;;;-12.98;49.04;100741.58;1713827;83;21258;-54
2021/01/18 03:59:09;;;;;;;44.67;23.50;;;;;;;-13.10;49.00;100729.52;1714013;82;21361;-54
2021/01/18 04:02:15;;;;;;;44.27;23.15;;;;;;;-13.19;49.10;100732.72;1713928;83;21255;-54
2021/01/18 04:05:21;;;;;;;46.73;23.45;;;;;;;-13.22;49.25;100732.77;1714050;83;21196;-54
2021/01/18 04:08:27;;;;;;;52.45;25.57;;;;;;;-13.33;49.17;100734.67;1714158;83;21356;-54
2021/01/18 04:11:32;;;;;;;49.65;24.47;;;;;;;-13.49;49.41;100734.44;1713883;83;21191;-55
2021/01/18 04:14:37;;;;;;;50.85;24.10;;;;;;;-13.51;49.52;100734.45;1714013;83;21208;-55
2021/01/18 04:17:42;;;;;;;47.40;23.60;;;;;;;-13.49;49.50;100736.60;1713958;83;21713;-55
2021/01/18 04:20:47;;;;;;;47.27;22.48;;;;;;;-13.47;49.44;100739.21;1713998;83;21198;-56
2021/01/18 04:23:53;;;;;;;54.98;24.67;;;;;;;-13.45;49.53;100739.64;1714013;83;21274;-54
2021/01/18 04:26:57;;;;;;;45.63;22.48;;;;;;;-13.36;49.50;100744.77;1714047;83;21219;-54
2021/01/18 04:30:02;;;;;;;45.08;23.25;;;;;;;-13.29;49.47;100748.20;1714060;83;21357;-54
2021/01/18 04:33:13;;;;;;;46.95;22.55;;;;;;;-13.24;49.50;100747.23;1713972;83;21323;-54
2021/01/18 04:36:17;;;;;;;46.33;23.77;;;;;;;-13.18;49.36;100751.12;1714032;83;21831;-54
2021/01/18 04:39:22;;;;;;;47.33;23.47;;;;;;;-13.08;49.22;100755.83;1713963;82;21254;-55
2021/01/18 04:42:27;;;;;;;48.87;24.00;;;;;;;-13.04;49.12;100761.46;1714041;83;21238;-54
2021/01/18 04:45:35;;;;;;;51.85;24.15;;;;;;;-13.03;48.90;100760.13;1714074;83;21923;-54
2021/01/18 04:48:41;;;;;;;50.90;25.25;;;;;;;-13.00;48.92;100765.81;1720205;82;21219;-55
2021/01/18 04:51:56;;;;;;;63.13;30.20;;;;;;;-12.94;48.84;100762.62;1723814;82;21246;-55
2021/01/18 04:55:02;;;;;;;61.00;28.38;;;;;;;-12.91;48.80;100755.10;1723715;83;21230;-55
2021/01/18 04:58:13;;;;;;;53.20;25.65;;;;;;;-12.84;48.77;100758.09;1723692;82;21256;-54
2021/01/18 05:01:18;;;;;;;52.90;26.80;;;;;;;-12.79;48.66;100765.02;1723629;81;21194;-55
2021/01/18 05:04:35;;;;;;;54.93;26.12;;;;;;;-12.73;48.59;100765.38;1723762;83;21313;-54
2021/01/18 05:07:54;;;;;;;56.45;25.85;;;;;;;-12.71;48.47;100772.36;1723654;83;21250;-55
2021/01/18 05:10:59;;;;;;;53.95;28.57;;;;;;;-12.72;48.35;100766.67;1723711;83;21238;-55
2021/01/18 05:14:11;;;;;;;67.53;28.77;;;;;;;-12.79;48.41;100768.08;1723607;83;21233;-54
2021/01/18 05:17:16;;;;;;;68.20;32.42;;;;;;;-12.77;48.53;100767.19;1723753;83;21214;-54
2021/01/18 05:20:25;;;;;;;55.88;25.77;;;;;;;-12.72;48.54;100777.66;1723624;83;21227;-54
2021/01/18 05:23:30;;;;;;;53.92;26.10;;;;;;;-12.67;48.52;100774.04;1723650;83;21732;-54
2021/01/18 05:26:35;;;;;;;51.40;25.17;;;;;;;-12.64;48.43;100771.83;1723740;83;21715;-55
2021/01/18 05:29:43;;;;;;;55.48;26.52;;;;;;;-12.63;48.32;100774.44;1723380;83;21230;-55
2021/01/18 05:32:47;;;;;;;57.20;26.48;;;;;;;-12.57;48.33;100776.97;1723428;83;21688;-55
2021/01/18 05:35:58;;;;;;;54.50;26.35;;;;;;;-12.49;48.14;100785.22;1723122;83;21183;-54
2021/01/18 05:39:03;;;;;;;58.80;25.75;;;;;;;-12.57;47.96;100786.19;1723228;82;21238;-55
2021/01/18 05:42:09;;;;;;;54.27;26.93;;;;;;;-12.59;48.02;100788.44;1723063;82;21261;-55
2021/01/18 05:45:15;;;;;;;57.20;29.37;;;;;;;-12.57;48.12;100795.86;1723203;83;21221;-54
2021/01/18 05:48:20;;;;;;;57.48;29.55;;;;;;;-12.53;48.17;100794.94;1700564;82;21391;-55
2021/01/18 05:51:29;;;;;;;51.98;25.40;;;;;;;-12.53;48.06;100789.66;1723228;81;21712;-55
2021/01/18 05:54:34;;;;;;;59.50;26.05;;;;;;;-12.59;48.03;100798.52;1723358;83;21222;-56
2021/01/18 05:57:40;;;;;;;48.68;24.32;;;;;;;-12.70;48.15;100795.64;1723221;83;21250;-55
2021/01/18 06:00:47;;;;;;;61.37;30.25;;;;;;;-12.71;48.36;100792.56;1720564;83;21325;-54
2021/01/18 06:03:52;;;;;;;52.80;27.15;;;;;;;-12.72;48.57;100788.19;1723062;83;21286;-58
2021/01/18 06:07:06;;;;;;;69.10;34.10;;;;;;;-12.72;48.58;100784.24;1719285;83;21226;-54
2021/01/18 06:10:12;;;;;;;62.48;26.00;;;;;;;-12.64;48.77;100791.59;1723148;83;21198;-54
2021/01/18 06:13:35;;;;;;;53.58;26.60;;;;;;;-12.49;48.76;100797.92;1719237;83;21735;-54
2021/01/18 06:16:41;;;;;;;50.45;24.20;;;;;;;-12.35;48.58;100797.73;1711515;83;21744;-54
2021/01/18 06:19:48;;;;;;;60.23;26.77;;;;;;;-12.24;48.45;100797.99;1713004;83;21225;-54
2021/01/18 06:23:01;;;;;;;58.23;28.38;;;;;;;-12.16;48.23;100802.66;1689155;83;21261;-55
2021/01/18 06:26:06;;;;;;;61.00;28.98;;;;;;;-12.14;48.11;100807.47;1693115;84;21270;-55
2021/01/18 06:29:11;;;;;;;69.70;32.70;;;;;;;-12.02;48.13;100816.52;1716333;83;21222;-58
2021/01/18 06:32:17;;;;;;;60.65;28.00;;;;;;;-11.92;48.01;100820.72;1715329;83;21194;-54
2021/01/18 06:35:22;;;;;;;59.63;29.48;;;;;;;-11.83;47.70;100819.70;1701348;83;21338;-55
2021/01/18 06:38:29;;;;;;;63.42;28.42;;;;;;;-11.83;47.54;100821.91;1673768;84;21763;-58
2021/01/18 06:41:39;;;;;;;58.30;29.12;;;;;;;-11.77;47.44;100824.43;1706636;83;21218;-54
2021/01/18 06:44:46;;;;;;;58.23;28.50;;;;;;;-11.69;47.34;100817.25;1710345;84;21245;-55
2021/01/18 06:47:52;;;;;;;75.52;35.48;;;;;;;-11.55;47.25;100832.34;1720022;83;21225;-54
2021/01/18 06:50:58;;;;;;;58.60;27.40;;;;;;;-11.44;47.15;100826.86;1711718;82;21260;-55
2021/01/18 06:54:06;;;;;;;87.75;37.98;;;;;;;-11.33;46.93;100819.59;1706382;84;21211;-54
2021/01/18 06:57:29;;;;;;;79.50;33.83;;;;;;;-11.26;46.64;100835.32;1686009;84;21215;-55
2021/01/18 07:00:34;;;;;;;57.58;27.50;;;;;;;-11.21;46.48;100825.51;1680938;85;21849;-55
2021/01/18 07:03:48;;;;;;;69.17;34.13;;;;;;;-11.15;46.41;100821.45;1649270;87;21251;-54
2021/01/18 07:06:53;;;;;;;60.75;26.77;;;;;;;-11.14;46.17;100823.17;1649516;87;21228;-54
2021/01/18 07:10:05;;;;;;;48.90;25.72;;;;;;;-11.08;46.21;100828.33;1655148;85;21845;-55
2021/01/18 07:13:14;;;;;;;54.77;27.45;;;;;;;-11.10;45.90;100825.31;1669339;85;21735;-54
2021/01/18 07:16:20;;;;;;;60.00;33.05;;;;;;;-11.18;46.08;100827.23;1706662;84;21234;-55
2021/01/18 07:19:27;;;;;;;53.63;25.05;;;;;;;-11.18;46.06;100832.05;1679748;84;21358;-55
2021/01/18 07:22:45;;;;;;;54.20;29.65;;;;;;;-11.09;46.22;100823.95;1677417;84;21183;-55
2021/01/18 07:25:56;;;;;;;56.65;28.70;;;;;;;-10.89;46.15;100830.61;1646918;85;21266;-56
2021/01/18 07:29:09;;;;;;;65.20;32.73;;;;;;;-10.70;45.96;100836.77;1705825;83;21214;-57
2021/01/18 07:32:16;;;;;;;60.75;31.37;;;;;;;-10.62;45.79;100840.59;1706162;84;21184;-58
2021/01/18 07:35:22;;;;;;;50.98;27.35;;;;;;;-10.53;45.64;100842.58;1707215;84;21207;-58
2021/01/18 07:38:34;;;;;;;69.42;31.93;;;;;;;-10.43;45.55;100844.57;1707190;84;21764;-58
2021/01/18 07:41:45;;;;;;;59.63;29.50;;;;;;;-10.31;45.41;100838.98;1706376;84;21198;-57
2021/01/18 07:44:50;;;;;;;64.47;29.07;;;;;;;-10.14;45.18;100837.69;1706899;84;21701;-54
2021/01/18 07:48:07;;;;;;;59.25;32.67;;;;;;;-10.12;44.46;100837.65;1707030;84;21198;-55
2021/01/18 07:51:13;;;;;;;54.93;26.57;;;;;;;-10.12;44.46;100837.65;1705632;82;21216;-52
2021/01/18 07:54:41;;;;;;;55.75;30.90;;;;;;;-10.17;44.46;100843.50;1702472;84;21227;-54
2021/01/18 07:57:48;;;;;;;57.50;27.60;;;;;;;-10.19;44.44;100838.69;1691511;84;21434;-54
2021/01/18 08:00:54;;;;;;;56.73;28.17;;;;;;;-10.17;44.42;100837.77;1680774;84;21421;-55
2021/01/18 08:04:04;;;;;;;62.55;32.30;;;;;;;-10.21;44.29;100829.94;1707221;84;21270;-55
2021/01/18 08:07:16;;;;;;;57.78;28.85;;;;;;;-10.30;44.43;100829.69;1707458;84;21795;-53
2021/01/18 08:10:21;;;;;;;55.20;28.38;;;;;;;-10.28;44.70;100828.33;1704580;84;21231;-55
2021/01/18 08:13:50;;;;;;;60.35;29.95;;;;;;;-10.28;44.68;100836.27;1695370;84;21775;-58
2021/01/18 08:16:56;;;;;;;59.10;30.35;;;;;;;-10.46;45.10;100836.70;1704597;84;21242;-57
2021/01/18 08:20:22;;;;;;;57.85;28.90;;;;;;;-10.46;45.10;100836.70;1703049;84;21223;-58
2021/01/18 08:23:52;;;;;;;67.97;29.67;;;;;;;-10.42;45.14;100817.20;1703330;84;21279;-57
2021/01/18 08:27:07;;;;;;;53.30;27.45;;;;;;;-10.28;45.18;100806.72;1706688;84;21780;-57
2021/01/18 08:30:41;;;;;;;64.42;30.32;;;;;;;-10.17;45.22;100809.98;1678799;85;21608;-57
2021/01/18 08:33:46;;;;;;;52.78;28.57;;;;;;;-10.20;44.99;100814.47;1706773;84;21263;-58
2021/01/18 08:36:56;;;;;;;52.08;26.93;;;;;;;-10.22;45.17;100813.63;1691543;84;21259;-56
2021/01/18 08:40:07;;;;;;;61.68;28.15;;;;;;;-10.22;45.15;100803.04;1695387;84;21463;-57
2021/01/18 08:43:11;;;;;;;54.33;28.15;;;;;;;-10.20;45.23;100799.47;1704937;84;21206;-56
2021/01/18 08:46:37;;;;;;;57.55;28.50;;;;;;;-10.10;45.42;100798.80;1695413;84;21840;-57
2021/01/18 08:49:43;;;;;;;51.80;26.00;;;;;;;-9.87;45.38;100791.09;1696438;84;21231;-55
2021/01/18 08:52:48;;;;;;;54.23;28.05;;;;;;;-9.50;44.90;100786.11;1706422;82;21355;-53
2021/01/18 08:55:54;;;;;;;52.30;27.05;;;;;;;-9.50;44.90;100786.11;1716244;83;21368;-57
2021/01/18 08:59:00;;;;;;;50.15;27.45;;;;;;;-9.41;44.61;100785.00;1717701;83;21395;-57
2021/01/18 09:02:06;;;;;;;52.03;26.62;;;;;;;-9.36;44.47;100785.75;1720204;83;21809;-58
2021/01/18 09:05:29;;;;;;;60.23;28.98;;;;;;;-9.47;44.21;100779.42;1730815;83;21749;-57
2021/01/18 09:08:38;;;;;;;53.50;26.97;;;;;;;-9.52;44.46;100782.66;1705038;83;21270;-56
2021/01/18 09:11:45;;;;;;;62.38;28.75;;;;;;;-9.46;44.44;100772.33;1710737;83;21871;-57
2021/01/18 09:14:59;;;;;;;51.35;26.60;;;;;;;-9.40;44.46;100777.45;1701818;84;21379;-57
2021/01/18 09:18:06;;;;;;;50.23;26.23;;;;;;;-9.38;44.08;100782.27;1702837;83;21777;-59
2021/01/18 09:21:17;;;;;;;54.90;28.07;;;;;;;-9.43;44.29;100789.46;1683706;84;21200;-58
2021/01/18 09:24:23;;;;;;;55.90;27.48;;;;;;;-9.43;44.29;100789.46;1702761;83;21217;-57
2021/01/18 09:27:30;;;;;;;76.22;39.23;;;;;;;-9.39;44.46;100772.59;1730552;83;21752;-57
2021/01/18 09:30:34;;;;;;;56.20;27.55;;;;;;;-9.08;44.67;100789.83;1730604;83;21228;-58
2021/01/18 09:33:40;;;;;;;55.88;28.55;;;;;;;-9.08;44.67;100789.83;1729406;83;21231;-56
2021/01/18 09:36:50;;;;;;;62.93;29.40;;;;;;;-8.91;44.31;100787.06;1706099;83;21733;-57
2021/01/18 09:39:54;;;;;;;64.58;29.85;;;;;;;-8.75;44.08;100788.35;1717239;83;21316;-58
2021/01/18 09:43:03;;;;;;;61.98;28.90;;;;;;;-8.58;43.83;100780.77;1726120;83;21267;-58
2021/01/18 09:46:10;;;;;;;60.45;30.17;;;;;;;-8.41;43.43;100768.29;1707400;83;21367;-58
2021/01/18 09:49:15;;;;;;;65.10;29.95;;;;;;;-8.35;43.23;100774.27;1716466;83;21256;-57
2021/01/18 09:52:23;;;;;;;63.87;30.90;;;;;;;-8.24;42.96;100768.61;1720018;83;21347;-57
2021/01/18 09:55:40;;;;;;;50.88;24.98;;;;;;;-8.19;43.03;100768.84;1692663;84;21279;-56
2021/01/18 09:58:54;;;;;;;60.52;29.48;;;;;;;-8.18;42.69;100761.28;1690117;84;21245;-61
2021/01/18 10:01:59;;;;;;;47.38;25.48;;;;;;;-8.38;42.58;100751.81;1701619;84;21763;-55
2021/01/18 10:05:06;;;;;;;54.90;27.07;;;;;;;-8.47;42.56;100752.56;1699575;84;21218;-58
2021/01/18 10:08:26;;;;;;;50.03;24.18;;;;;;;-8.47;42.68;100752.12;1700340;84;21225;-57
2021/01/18 10:11:58;;;;;;;57.53;27.42;;;;;;;-8.35;42.67;100747.73;1699531;84;21267;-57
2021/01/18 10:15:04;;;;;;;53.73;27.10;;;;;;;-8.11;42.71;100740.27;1684543;84;21219;-57
2021/01/18 10:18:11;;;;;;;64.80;35.05;;;;;;;-7.87;42.38;100739.89;1659232;86;21235;-57
2021/01/18 10:21:17;;;;;;;57.93;28.17;;;;;;;-7.76;42.45;100733.30;1659226;86;21223;-57
2021/01/18 10:24:39;;;;;;;79.35;37.53;;;;;;;-7.66;42.15;100738.27;1661556;84;21310;-56
2021/01/18 10:27:44;;;;;;;51.63;28.60;;;;;;;-7.61;41.98;100745.63;1696063;84;21571;-56
2021/01/18 10:30:48;;;;;;;53.73;25.72;;;;;;;-7.67;41.69;100751.17;1685996;85;21237;-56
2021/01/18 10:34:16;;;;;;;53.80;25.82;;;;;;;-7.69;41.99;100743.70;1686617;85;21802;-57
2021/01/18 10:37:22;;;;;;;61.50;31.95;;;;;;;-7.89;41.85;100742.60;1686960;85;21298;-56
2021/01/18 10:40:29;;;;;;;53.90;27.40;;;;;;;-7.98;41.99;100738.94;1686866;85;21776;-57
2021/01/18 10:43:35;;;;;;;46.90;25.45;;;;;;;-7.92;42.00;100737.39;1690910;84;21215;-58
2021/01/18 10:46:40;;;;;;;48.40;23.95;;;;;;;-7.99;41.75;100727.05;1688224;84;21222;-58
2021/01/18 10:49:46;;;;;;;56.58;27.98;;;;;;;-8.17;41.83;100721.89;1687419;85;21231;-57
2021/01/18 10:52:52;;;;;;;51.53;24.92;;;;;;;-8.25;42.24;100723.09;1687289;85;21214;-57
2021/01/18 10:55:57;;;;;;;48.38;24.12;;;;;;;-8.15;42.29;100712.06;1706047;82;21242;-57
2021/01/18 10:59:05;;;;;;;53.17;25.60;;;;;;;-8.20;42.26;100723.77;1707769;84;21216;-57
2021/01/18 11:02:16;;;;;;;50.75;25.15;;;;;;;-8.08;42.56;100716.71;1708027;84;21287;-58
2021/01/18 11:05:23;;;;;;;44.85;23.27;;;;;;;-7.95;42.46;100711.39;1705446;84;21258;-58
2021/01/18 11:08:31;;;;;;;50.63;27.05;;;;;;;-7.93;42.48;100726.34;1698290;84;21437;-58
2021/01/18 11:11:38;;;;;;;52.70;24.25;;;;;;;-7.90;42.59;100727.59;1670193;84;21220;-56
2021/01/18 11:14:44;;;;;;;52.45;28.12;;;;;;;-7.79;42.39;100718.80;1686077;84;21393;-58
2021/01/18 11:17:49;;;;;;;44.18;21.95;;;;;;;-7.72;42.27;100717.64;1698004;84;21244;-58
2021/01/18 11:21:01;;;;;;;51.63;27.75;;;;;;;-7.50;42.28;100714.22;1693901;84;21243;-57
2021/01/18 11:24:06;;;;;;;56.60;28.15;;;;;;;-7.45;41.96;100710.95;1639512;86;21254;-56
2021/01/18 11:27:13;;;;;;;46.92;20.97;;;;;;;-7.49;41.78;100718.61;1695039;84;21211;-58
2021/01/18 11:30:22;;;;;;;52.50;28.20;;;;;;;-7.41;41.95;100717.87;1699396;84;21222;-58
2021/01/18 11:33:27;;;;;;;40.20;21.05;;;;;;;-7.33;41.86;100714.47;1706546;84;21231;-58
2021/01/18 11:36:34;;;;;;;44.93;22.10;;;;;;;-6.98;41.79;100716.68;1688587;84;21804;-57
2021/01/18 11:39:39;;;;;;;51.10;25.45;;;;;;;-6.77;41.58;100723.84;1706511;84;21772;-57
2021/01/18 11:42:46;;;;;;;41.53;21.00;;;;;;;-6.70;41.36;100714.67;1705408;84;21305;-58
2021/01/18 11:45:51;;;;;;;51.80;25.08;;;;;;;-6.49;41.13;100712.50;1702102;84;21566;-58
2021/01/18 11:48:57;;;;;;;48.08;24.65;;;;;;;-6.63;41.02;100723.68;1679606;84;21773;-58
2021/01/18 11:52:02;;;;;;;54.48;29.27;;;;;;;-6.73;40.86;100729.44;1691281;84;21223;-58
2021/01/18 11:55:09;;;;;;;49.65;24.75;;;;;;;-6.95;41.22;100729.86;1704312;81;21785;-58
2021/01/18 11:58:15;;;;;;;47.70;25.62;;;;;;;-6.87;41.45;100735.30;1683735;83;21851;-59
2021/01/18 12:01:20;;;;;;;52.20;26.70;;;;;;;-6.84;41.32;100733.85;1685543;84;21227;-58
2021/01/18 12:04:28;;;;;;;47.95;25.25;;;;;;;-6.98;41.38;100731.31;1695503;84;21549;-59
2021/01/18 12:07:33;;;;;;;58.05;29.23;;;;;;;-7.05;41.52;100736.44;1709098;83;21573;-60
2021/01/18 12:10:41;;;;;;;53.33;28.42;;;;;;;-7.17;41.93;100736.91;1712453;83;21371;-59
2021/01/18 12:13:47;;;;;;;52.90;25.92;;;;;;;-7.19;41.93;100738.75;1708827;82;21200;-59
2021/01/18 12:16:53;;;;;;;52.55;26.27;;;;;;;-7.16;42.04;100737.31;1710573;83;21176;-57
2021/01/18 12:20:00;;;;;;;77.80;40.83;;;;;;;-7.22;42.01;100745.52;1712628;83;21552;-60
2021/01/18 12:23:08;;;;;;;122.70;60.78;;;;;;;-7.26;42.20;100742.58;1711630;83;21811;-56
2021/01/18 12:26:14;;;;;;;50.55;28.47;;;;;;;-7.23;42.31;100739.80;1709477;83;21211;-55
2021/01/18 12:29:19;;;;;;;100.97;46.23;;;;;;;-7.11;42.42;100748.20;1706891;83;21535;-55
2021/01/18 12:32:24;;;;;;;60.20;30.12;;;;;;;-7.01;42.41;100746.06;1706725;83;21255;-55
2021/01/18 12:35:30;;;;;;;60.33;31.37;;;;;;;-6.91;42.50;100744.80;1710321;83;21195;-56
2021/01/18 12:38:35;;;;;;;56.20;30.20;;;;;;;-6.84;42.67;100741.84;1709778;83;21759;-56
2021/01/18 12:41:45;;;;;;;54.48;29.18;;;;;;;-6.67;42.48;100739.84;1708806;83;21776;-55
2021/01/18 12:44:51;;;;;;;61.92;30.32;;;;;;;-6.63;42.17;100735.66;1711573;82;21243;-55
2021/01/18 12:47:57;;;;;;;71.37;33.98;;;;;;;-6.62;41.95;100730.77;1705886;83;21214;-55
2021/01/18 12:51:02;;;;;;;58.85;31.00;;;;;;;-6.66;42.06;100735.78;1712844;83;21763;-56
2021/01/18 12:54:08;;;;;;;56.02;27.45;;;;;;;-6.60;42.08;100742.67;1701409;83;21773;-56
2021/01/18 12:57:13;;;;;;;65.40;32.25;;;;;;;-6.67;41.81;100742.50;1720843;81;21202;-56
2021/01/18 13:00:19;;;;;;;92.65;43.02;;;;;;;-7.03;42.01;100746.13;1700881;84;21330;-55
2021/01/18 13:03:24;;;;;;;55.52;26.00;;;;;;;-7.32;42.25;100748.09;1700991;84;21235;-58
2021/01/18 13:06:32;;;;;;;147.35;55.70;;;;;;;-7.42;42.55;100746.23;1701117;84;21219;-55
2021/01/18 13:09:37;;;;;;;110.85;48.98;;;;;;;-7.72;42.75;100752.63;1702797;83;21232;-55
2021/01/18 13:12:43;;;;;;;66.05;31.85;;;;;;;-7.62;43.39;100758.48;1716422;83;21577;-55
2021/01/18 13:15:47;;;;;;;72.05;39.50;;;;;;;-7.60;43.27;100761.97;1724278;83;21215;-55
2021/01/18 13:18:54;;;;;;;61.53;33.00;;;;;;;-7.59;43.14;100761.91;1716920;83;21220;-55
2021/01/18 13:22:01;;;;;;;61.00;31.12;;;;;;;-7.58;43.10;100746.84;1713788;83;21631;-56
2021/01/18 13:25:07;;;;;;;64.82;32.13;;;;;;;-7.64;43.06;100759.88;1725478;83;21226;-55
2021/01/18 13:28:13;;;;;;;70.97;33.65;;;;;;;-7.59;43.34;100770.37;1727541;83;21957;-54
2021/01/18 13:31:19;;;;;;;63.65;31.65;;;;;;;-7.50;43.36;100761.61;1726140;83;21358;-55
2021/01/18 13:34:25;;;;;;;54.40;27.25;;;;;;;-7.41;43.57;100761.28;1730975;83;21269;-56
2021/01/18 13:37:31;;;;;;;54.77;28.07;;;;;;;-7.38;43.18;100765.61;1720624;83;21362;-56
2021/01/18 13:40:37;;;;;;;59.60;29.00;;;;;;;-7.47;43.24;100757.97;1730493;83;21359;-56
2021/01/18 13:43:44;;;;;;;67.45;35.33;;;;;;;-7.37;43.28;100760.72;1726664;83;21264;-55
2021/01/18 13:46:49;;;;;;;63.92;29.18;;;;;;;-7.29;43.12;100774.60;1700575;84;21282;-56
2021/01/18 13:50:02;;;;;;;60.73;27.27;;;;;;;-7.54;43.03;100769.27;1701651;84;21216;-55
2021/01/18 13:53:08;;;;;;;62.10;29.35;;;;;;;-7.65;43.20;100771.88;1714213;83;21410;-55
2021/01/18 13:56:15;;;;;;;59.10;29.32;;;;;;;-7.91;43.22;100769.66;1731046;83;21240;-56
2021/01/18 13:59:20;;;;;;;56.75;27.52;;;;;;;-8.12;43.42;100774.35;1706954;83;21839;-56
2021/01/18 14:02:25;;;;;;;67.80;31.20;;;;;;;-8.16;43.87;100775.38;1709901;82;21222;-56
2021/01/18 14:05:31;;;;;;;61.48;32.55;;;;;;;-8.23;43.88;100793.77;1718892;83;21787;-56
2021/01/18 14:08:36;;;;;;;69.35;32.15;;;;;;;-8.36;44.09;100790.25;1720352;82;21703;-56
2021/01/18 14:11:43;;;;;;;57.58;29.80;;;;;;;-8.38;44.53;100796.05;1720700;83;21195;-55